createdAt,value
2023-05-12T00:00:13.105Z,14.80
2023-05-12T00:02:17.613Z,14.80
2023-05-12T00:04:20.595Z,14.80
2023-05-12T00:06:23.547Z,14.80
2023-05-12T00:08:27.716Z,14.80
2023-05-12T00:10:32.179Z,14.80
2023-05-12T00:12:35.070Z,14.80
2023-05-12T00:14:38.049Z,14.80
2023-05-12T00:16:42.293Z,14.80
2023-05-12T00:18:45.534Z,14.80
2023-05-12T00:20:48.498Z,14.80
2023-05-12T00:22:51.401Z,14.80
2023-05-12T00:24:54.312Z,14.80
2023-05-12T00:27:02.225Z,14.80
2023-05-12T00:29:07.262Z,14.80
2023-05-12T00:31:10.252Z,14.80
2023-05-12T00:33:13.571Z,14.80
2023-05-12T00:35:18.340Z,14.80
2023-05-12T00:37:21.699Z,14.80
2023-05-12T00:39:24.793Z,14.70
2023-05-12T00:41:28.443Z,14.70
2023-05-12T00:43:33.663Z,14.80
2023-05-12T00:45:36.915Z,14.80
2023-05-12T00:47:41.623Z,14.80
2023-05-12T00:49:44.904Z,14.80
2023-05-12T00:51:47.830Z,14.80
2023-05-12T00:53:51.388Z,14.80
2023-05-12T00:55:57.506Z,14.80
2023-05-12T00:58:01.863Z,14.80
2023-05-12T01:00:10.664Z,14.70
2023-05-12T01:02:15.393Z,14.80
2023-05-12T01:04:18.748Z,14.70
2023-05-12T01:06:30.050Z,14.70
2023-05-12T01:08:34.204Z,14.70
2023-05-12T01:10:37.777Z,14.70
2023-05-12T01:12:40.712Z,14.60
2023-05-12T01:14:44.057Z,14.60
2023-05-12T01:16:54.839Z,14.60
2023-05-12T01:19:02.971Z,14.60
2023-05-12T01:21:06.929Z,14.60
2023-05-12T01:23:10.578Z,14.60
2023-05-12T01:25:16.372Z,14.60
2023-05-12T01:27:23.474Z,14.60
2023-05-12T01:29:28.006Z,14.60
2023-05-12T01:31:31.980Z,14.60
2023-05-12T01:33:36.226Z,14.60
2023-05-12T01:35:39.502Z,14.50
2023-05-12T01:37:45.699Z,14.50
2023-05-12T01:39:48.770Z,14.50
2023-05-12T01:41:57.945Z,14.50
2023-05-12T01:44:02.538Z,14.40
2023-05-12T01:46:05.924Z,14.40
2023-05-12T01:48:09.249Z,14.40
2023-05-12T01:50:12.618Z,14.40
2023-05-12T01:52:16.150Z,14.40
2023-05-12T01:54:19.245Z,14.40
2023-05-12T01:56:22.830Z,14.40
2023-05-12T01:58:27.660Z,14.40
2023-05-12T02:00:33.159Z,14.40
2023-05-12T02:02:39.749Z,14.40
2023-05-12T02:04:50.266Z,14.40
2023-05-12T02:06:54.504Z,14.40
2023-05-12T02:08:57.388Z,14.40
2023-05-12T02:11:09.938Z,14.40
2023-05-12T02:13:14.336Z,14.40
2023-05-12T02:15:17.484Z,14.40
2023-05-12T02:17:25.079Z,14.40
2023-05-12T02:19:28.067Z,14.40
2023-05-12T02:21:33.960Z,14.40
2023-05-12T02:23:37.073Z,14.40
2023-05-12T02:25:40.011Z,14.20
2023-05-12T02:27:45.507Z,14.40
2023-05-12T02:29:49.110Z,14.40
2023-05-12T02:31:53.196Z,14.40
2023-05-12T02:34:01.074Z,14.40
2023-05-12T02:36:04.827Z,14.40
2023-05-12T02:38:10.693Z,14.50
2023-05-12T02:40:14.624Z,14.50
2023-05-12T02:42:22.067Z,14.40
2023-05-12T02:44:29.481Z,14.40
2023-05-12T02:46:32.464Z,14.50
2023-05-12T02:48:38.504Z,14.50
2023-05-12T02:50:43.141Z,14.40
2023-05-12T02:52:47.980Z,14.50
2023-05-12T02:54:50.962Z,14.50
2023-05-12T02:56:56.507Z,14.40
2023-05-12T02:59:03.455Z,14.50
2023-05-12T03:01:11.232Z,14.50
2023-05-12T03:03:15.738Z,14.50
2023-05-12T03:05:18.948Z,14.40
2023-05-12T03:07:24.818Z,14.50
2023-05-12T03:09:27.756Z,14.50
2023-05-12T03:11:33.555Z,14.50
2023-05-12T03:13:36.569Z,14.50
2023-05-12T03:15:40.848Z,14.50
2023-05-12T03:17:43.913Z,14.50
2023-05-12T03:19:46.935Z,14.50
2023-05-12T03:21:55.028Z,14.50
2023-05-12T03:23:59.331Z,14.50
2023-05-12T03:26:02.484Z,14.50
2023-05-12T03:28:08.912Z,14.50
2023-05-12T03:30:13.082Z,14.50
2023-05-12T03:32:16.620Z,14.50
2023-05-12T03:34:19.606Z,14.50
2023-05-12T03:36:25.272Z,14.40
2023-05-12T03:38:28.210Z,14.50
2023-05-12T03:40:33.629Z,14.50
2023-05-12T03:42:36.564Z,14.50
2023-05-12T03:44:42.540Z,14.40
2023-05-12T03:46:45.698Z,14.40
2023-05-12T03:48:53.798Z,14.40
2023-05-12T03:50:56.772Z,14.50
2023-05-12T03:52:59.729Z,14.40
2023-05-12T03:55:06.008Z,14.50
2023-05-12T03:57:12.676Z,14.50
2023-05-12T03:59:16.225Z,14.50
2023-05-12T04:01:20.434Z,14.50
2023-05-12T04:03:23.399Z,14.50
2023-05-12T04:05:26.767Z,14.50
2023-05-12T04:07:29.604Z,14.40
2023-05-12T04:09:32.842Z,14.40
2023-05-12T04:11:38.024Z,14.40
2023-05-12T04:13:42.532Z,14.40
2023-05-12T04:15:46.636Z,14.40
2023-05-12T04:17:52.432Z,14.40
2023-05-12T04:19:55.877Z,14.40
2023-05-12T04:22:13.305Z,14.40
2023-05-12T04:24:16.769Z,14.40
2023-05-12T04:26:19.908Z,14.40
2023-05-12T04:28:25.803Z,14.40
2023-05-12T04:30:31.941Z,14.40
2023-05-12T04:32:36.382Z,14.40
2023-05-12T04:34:39.411Z,14.40
2023-05-12T04:36:43.371Z,14.40
2023-05-12T04:38:46.548Z,14.40
2023-05-12T04:40:49.928Z,14.40
2023-05-12T04:42:54.851Z,14.40
2023-05-12T04:44:57.802Z,14.40
2023-05-12T04:47:02.066Z,14.40
2023-05-12T04:49:07.802Z,14.40
2023-05-12T04:51:10.735Z,14.40
2023-05-12T04:53:14.025Z,14.40
2023-05-12T04:55:20.098Z,14.40
2023-05-12T04:57:25.972Z,14.50
2023-05-12T04:59:31.878Z,14.50
2023-05-12T05:01:34.956Z,14.50
2023-05-12T05:03:39.882Z,14.50
2023-05-12T05:05:43.093Z,14.60
2023-05-12T05:07:46.023Z,14.60
2023-05-12T05:09:49.374Z,14.60
2023-05-12T05:11:54.297Z,14.60
2023-05-12T05:13:59.858Z,14.60
2023-05-12T05:16:07.697Z,14.60
2023-05-12T05:18:10.690Z,14.70
2023-05-12T05:20:15.503Z,14.70
2023-05-12T05:22:18.834Z,14.70
2023-05-12T05:24:22.659Z,14.70
2023-05-12T05:26:26.296Z,14.70
2023-05-12T05:28:29.359Z,14.80
2023-05-12T05:30:32.979Z,14.80
2023-05-12T05:32:37.829Z,14.80
2023-05-12T05:34:40.848Z,14.80
2023-05-12T05:36:45.258Z,14.90
2023-05-12T05:38:48.351Z,14.90
2023-05-12T05:40:54.683Z,14.90
2023-05-12T05:43:00.954Z,14.90
2023-05-12T05:45:03.952Z,14.90
2023-05-12T05:47:08.633Z,14.90
2023-05-12T05:49:11.629Z,15.00
2023-05-12T05:51:15.008Z,15.00
2023-05-12T05:53:19.609Z,15.00
2023-05-12T05:55:23.259Z,15.00
2023-05-12T05:57:28.101Z,15.00
2023-05-12T05:59:32.989Z,15.00
2023-05-12T06:01:37.141Z,15.00
2023-05-12T06:03:42.982Z,15.00
2023-05-12T06:05:47.321Z,15.00
2023-05-12T06:07:50.235Z,15.00
2023-05-12T06:09:55.521Z,15.00
2023-05-12T06:12:00.045Z,15.00
2023-05-12T06:14:02.973Z,15.00
2023-05-12T06:16:07.587Z,15.00
2023-05-12T06:18:13.270Z,15.00
2023-05-12T06:20:20.683Z,15.00
2023-05-12T06:22:23.546Z,15.10
2023-05-12T06:24:26.730Z,15.10
2023-05-12T06:26:31.032Z,15.10
2023-05-12T06:28:33.896Z,15.10
2023-05-12T06:30:36.999Z,15.10
2023-05-12T06:32:39.945Z,15.10
2023-05-12T06:34:42.923Z,15.20
2023-05-12T06:36:46.728Z,15.10
2023-05-12T06:38:50.952Z,15.20
2023-05-12T06:40:53.805Z,15.20
2023-05-12T06:42:57.951Z,15.20
2023-05-12T06:45:04.029Z,15.30
2023-05-12T06:47:08.231Z,15.30
2023-05-12T06:49:11.094Z,15.30
2023-05-12T06:51:14.316Z,15.30
2023-05-12T06:53:19.891Z,15.30
2023-05-12T06:55:23.951Z,15.40
2023-05-12T06:57:27.246Z,15.40
2023-05-12T06:59:31.780Z,15.50
2023-05-12T07:01:35.077Z,15.40
2023-05-12T07:03:38.601Z,15.50
2023-05-12T07:05:41.515Z,15.50
2023-05-12T07:07:44.425Z,15.50
2023-05-12T07:09:47.286Z,15.50
2023-05-12T07:11:50.157Z,15.50
2023-05-12T07:13:53.438Z,15.50
2023-05-12T07:15:57.725Z,15.50
2023-05-12T07:18:07.047Z,15.50
2023-05-12T07:20:10.811Z,15.60
2023-05-12T07:22:15.497Z,15.60
2023-05-12T07:24:18.429Z,15.60
2023-05-12T07:26:21.623Z,15.60
2023-05-12T07:28:26.269Z,15.70
2023-05-12T07:30:29.168Z,15.70
2023-05-12T07:32:34.749Z,15.70
2023-05-12T07:34:38.256Z,15.70
2023-05-12T07:36:41.147Z,15.70
2023-05-12T07:38:44.648Z,15.80
2023-05-12T07:40:50.302Z,15.80
2023-05-12T07:42:56.211Z,15.80
2023-05-12T07:44:59.067Z,15.90
2023-05-12T07:47:01.966Z,15.90
2023-05-12T07:49:08.442Z,15.90
2023-05-12T07:51:11.340Z,16.00
2023-05-12T07:53:14.276Z,16.00
2023-05-12T07:55:17.634Z,16.00
2023-05-12T07:57:20.557Z,16.10
2023-05-12T07:59:23.502Z,16.10
2023-05-12T08:01:26.424Z,16.10
2023-05-12T08:03:31.627Z,16.10
2023-05-12T08:05:38.300Z,16.10
2023-05-12T08:07:43.540Z,16.20
2023-05-12T08:09:46.548Z,16.20
2023-05-12T08:11:51.438Z,16.20
2023-05-12T08:13:54.867Z,16.10
2023-05-12T08:15:58.092Z,16.20
2023-05-12T08:18:01.130Z,16.10
2023-05-12T08:20:05.130Z,16.10
2023-05-12T08:22:09.350Z,16.10
2023-05-12T08:24:12.202Z,16.10
2023-05-12T08:26:15.102Z,16.10
2023-05-12T08:28:18.045Z,16.10
2023-05-12T08:30:23.544Z,16.10
2023-05-12T08:32:26.667Z,16.10
2023-05-12T08:34:29.630Z,16.10
2023-05-12T08:36:32.883Z,16.10
2023-05-12T08:38:37.176Z,16.10
2023-05-12T08:40:49.953Z,16.20
2023-05-12T08:43:01.140Z,16.20
2023-05-12T08:45:05.378Z,16.20
2023-05-12T08:47:09.522Z,16.10
2023-05-12T08:49:16.593Z,16.20
2023-05-12T08:51:20.862Z,16.10
2023-05-12T08:53:25.036Z,16.10
2023-05-12T08:55:32.801Z,16.10
2023-05-12T08:57:45.319Z,16.10
2023-05-12T08:59:49.557Z,16.10
2023-05-12T09:01:52.669Z,16.10
2023-05-12T09:03:55.796Z,16.20
2023-05-12T09:06:00.268Z,16.20
2023-05-12T09:08:06.895Z,16.20
2023-05-12T09:10:32.257Z,16.20
2023-05-12T09:12:38.973Z,16.20
2023-05-12T09:14:45.831Z,16.20
2023-05-12T09:16:51.916Z,16.20
2023-05-12T09:18:56.385Z,16.20
2023-05-12T09:21:05.189Z,16.20
2023-05-12T09:23:17.977Z,16.30
2023-05-12T09:25:22.338Z,16.30
2023-05-12T09:27:26.904Z,16.30
2023-05-12T09:29:35.867Z,16.40
2023-05-12T09:31:54.628Z,16.40
2023-05-12T09:34:04.614Z,16.50
2023-05-12T09:36:08.121Z,16.60
2023-05-12T09:38:12.134Z,16.60
2023-05-12T09:40:16.844Z,16.70
2023-05-12T09:42:21.854Z,16.80
2023-05-12T09:44:28.910Z,16.90
2023-05-12T09:46:34.490Z,16.90
2023-05-12T09:48:42.435Z,17.00
2023-05-12T09:50:47.810Z,17.00
2023-05-12T09:52:52.268Z,17.10
2023-05-12T09:54:55.149Z,17.10
2023-05-12T09:57:00.504Z,17.10
2023-05-12T09:59:06.577Z,17.20
2023-05-12T10:01:21.746Z,17.20
2023-05-12T10:03:30.557Z,17.20
2023-05-12T10:05:35.058Z,17.20
2023-05-12T10:07:41.406Z,17.20
2023-05-12T10:09:47.376Z,17.30
2023-05-12T10:11:53.965Z,17.30
2023-05-12T10:13:59.935Z,17.40
2023-05-12T10:16:03.829Z,17.40
2023-05-12T10:18:09.677Z,17.40
2023-05-12T10:20:17.357Z,17.40
2023-05-12T10:22:21.582Z,17.50
2023-05-12T10:24:27.809Z,17.50
2023-05-12T10:26:34.757Z,17.60
2023-05-12T10:28:37.720Z,17.60
2023-05-12T10:30:43.033Z,17.60
2023-05-12T10:32:45.940Z,17.70
2023-05-12T10:34:52.005Z,17.60
2023-05-12T10:36:56.237Z,17.60
2023-05-12T10:39:07.921Z,17.50
2023-05-12T10:41:13.789Z,17.50
2023-05-12T10:43:26.648Z,17.40
2023-05-12T10:45:30.636Z,17.30
2023-05-12T10:47:38.668Z,17.20
2023-05-12T10:49:43.141Z,17.20
2023-05-12T10:51:50.548Z,17.10
2023-05-12T10:53:57.949Z,17.10
2023-05-12T10:56:08.107Z,17.10
2023-05-12T10:58:13.560Z,17.20
2023-05-12T11:00:17.562Z,17.20
2023-05-12T11:02:26.296Z,17.20
2023-05-12T11:04:40.714Z,17.30
2023-05-12T11:06:45.440Z,17.40
2023-05-12T11:08:50.999Z,17.40
2023-05-12T11:10:55.970Z,17.40
2023-05-12T11:12:59.839Z,17.40
2023-05-12T11:15:04.487Z,17.50
2023-05-12T11:17:07.470Z,17.50
2023-05-12T11:19:10.638Z,17.50
2023-05-12T11:21:13.904Z,17.50
2023-05-12T11:23:28.353Z,17.60
2023-05-12T11:25:31.679Z,17.70
2023-05-12T11:27:41.254Z,17.70
2023-05-12T11:29:46.995Z,17.80
2023-05-12T11:31:52.974Z,17.80
2023-05-12T11:34:13.114Z,17.80
2023-05-12T11:36:21.651Z,17.80
2023-05-12T11:38:27.218Z,17.80
2023-05-12T11:40:30.502Z,17.80
2023-05-12T11:42:34.808Z,17.80
2023-05-12T11:44:38.432Z,17.70
2023-05-12T11:46:41.507Z,17.70
2023-05-12T11:48:44.365Z,17.70
2023-05-12T11:50:47.816Z,17.60
2023-05-12T11:52:54.616Z,17.60
2023-05-12T11:55:01.339Z,17.60
2023-05-12T11:57:04.563Z,17.60
2023-05-12T11:59:09.262Z,17.60
2023-05-12T12:01:12.726Z,17.60
2023-05-12T12:03:18.192Z,17.60
2023-05-12T12:05:24.143Z,17.60
2023-05-12T12:07:31.374Z,17.70
2023-05-12T12:09:36.351Z,17.70
2023-05-12T12:11:39.533Z,17.70
2023-05-12T12:13:49.841Z,17.80
2023-05-12T12:15:54.066Z,17.80
2023-05-12T12:17:59.624Z,17.90
2023-05-12T12:20:06.524Z,18.00
2023-05-12T12:22:09.464Z,18.00
2023-05-12T12:24:12.368Z,18.10
2023-05-12T12:26:16.443Z,18.20
2023-05-12T12:28:20.378Z,18.30
2023-05-12T12:30:23.270Z,18.40
2023-05-12T12:32:27.554Z,18.50
2023-05-12T12:34:30.636Z,18.60
2023-05-12T12:36:33.827Z,18.70
2023-05-12T12:38:36.838Z,18.80
2023-05-12T12:40:39.839Z,18.90
2023-05-12T12:42:42.720Z,18.90
2023-05-12T12:44:47.897Z,19.00
2023-05-12T12:46:51.028Z,19.00
2023-05-12T12:48:57.311Z,19.00
2023-05-12T12:51:02.110Z,19.00
2023-05-12T12:53:05.011Z,18.90
2023-05-12T12:55:10.137Z,18.90
2023-05-12T12:57:13.712Z,18.90
2023-05-12T12:59:16.632Z,18.90
2023-05-12T13:01:19.623Z,18.80
2023-05-12T13:03:22.985Z,18.80
2023-05-12T13:05:27.207Z,18.80
2023-05-12T13:07:30.232Z,18.80
2023-05-12T13:09:33.280Z,18.80
2023-05-12T13:11:36.293Z,18.70
2023-05-12T13:13:44.824Z,18.70
2023-05-12T13:15:48.117Z,18.70
2023-05-12T13:17:53.268Z,18.70
2023-05-12T13:19:56.255Z,18.80
2023-05-12T13:22:00.451Z,18.70
2023-05-12T13:24:03.358Z,18.80
2023-05-12T13:26:06.388Z,18.80
2023-05-12T13:28:11.425Z,18.80
2023-05-12T13:30:17.332Z,18.80
2023-05-12T13:32:21.759Z,18.80
2023-05-12T13:34:24.810Z,18.70
2023-05-12T13:36:32.403Z,18.70
2023-05-12T13:38:37.153Z,18.70
2023-05-12T13:40:40.136Z,18.70
2023-05-12T13:42:45.766Z,18.70
2023-05-12T13:44:49.468Z,18.70
2023-05-12T13:46:53.022Z,18.70
2023-05-12T13:48:55.959Z,18.70
2023-05-12T13:51:01.064Z,18.70
2023-05-12T13:53:03.934Z,18.60
2023-05-12T13:55:09.132Z,18.60
2023-05-12T13:57:11.991Z,18.60
2023-05-12T13:59:16.431Z,18.50
2023-05-12T14:01:19.533Z,18.40
2023-05-12T14:03:23.347Z,18.30
2023-05-12T14:05:27.241Z,18.30
2023-05-12T14:07:30.144Z,18.20
2023-05-12T14:09:33.006Z,18.10
2023-05-12T14:11:37.545Z,18.00
2023-05-12T14:13:40.504Z,18.00
2023-05-12T14:15:49.447Z,17.90
2023-05-12T14:17:53.233Z,17.80
2023-05-12T14:19:57.699Z,17.80
2023-05-12T14:22:03.160Z,17.70
2023-05-12T14:24:08.348Z,17.60
2023-05-12T14:26:11.212Z,17.60
2023-05-12T14:28:15.623Z,17.60
2023-05-12T14:30:18.865Z,17.60
2023-05-12T14:32:21.953Z,17.50
2023-05-12T14:34:24.827Z,17.50
2023-05-12T14:36:29.748Z,17.50
2023-05-12T14:38:32.644Z,17.50
2023-05-12T14:40:39.606Z,17.50
2023-05-12T14:42:43.236Z,17.50
2023-05-12T14:44:47.466Z,17.60
2023-05-12T14:46:50.413Z,17.60
2023-05-12T14:48:53.456Z,17.60
2023-05-12T14:51:02.055Z,17.60
2023-05-12T14:53:06.991Z,17.70
2023-05-12T14:55:13.632Z,17.70
2023-05-12T14:57:16.554Z,17.70
2023-05-12T14:59:19.692Z,17.70
2023-05-12T15:01:23.927Z,17.70
2023-05-12T15:03:33.541Z,17.70
2023-05-12T15:05:55.102Z,17.80
2023-05-12T15:08:01.973Z,17.80
2023-05-12T15:10:05.646Z,17.90
2023-05-12T15:12:10.624Z,17.90
2023-05-12T15:14:13.869Z,17.90
2023-05-12T15:16:16.820Z,18.00
2023-05-12T15:18:21.131Z,18.00
2023-05-12T15:20:26.127Z,18.10
2023-05-12T15:22:34.134Z,18.10
2023-05-12T15:24:37.073Z,18.20
2023-05-12T15:26:41.826Z,18.20
2023-05-12T15:28:44.710Z,18.20
2023-05-12T15:30:55.637Z,18.30
2023-05-12T15:32:59.815Z,18.30
2023-05-12T15:35:04.057Z,18.30
2023-05-12T15:37:09.301Z,18.40
2023-05-12T15:39:13.757Z,18.40
2023-05-12T15:41:16.698Z,18.40
2023-05-12T15:43:19.934Z,18.50
2023-05-12T15:45:23.013Z,18.50
2023-05-12T15:47:29.223Z,18.60
2023-05-12T15:49:33.440Z,18.60
2023-05-12T15:51:37.799Z,18.50
2023-05-12T15:53:40.696Z,18.50
2023-05-12T15:55:44.282Z,18.50
2023-05-12T15:57:47.180Z,18.50
2023-05-12T15:59:51.987Z,18.40
2023-05-12T16:01:55.785Z,18.40
2023-05-12T16:04:00.354Z,18.40
2023-05-12T16:06:03.381Z,18.30
2023-05-12T16:08:07.726Z,18.30
2023-05-12T16:10:11.676Z,18.30
2023-05-12T16:12:23.602Z,18.20
2023-05-12T16:14:29.325Z,18.30
2023-05-12T16:16:32.382Z,18.20
2023-05-12T16:18:36.765Z,18.20
2023-05-12T16:20:41.531Z,18.20
2023-05-12T16:22:46.634Z,18.20
2023-05-12T16:24:50.830Z,18.20
2023-05-12T16:26:53.684Z,18.20
2023-05-12T16:28:56.600Z,18.20
2023-05-12T16:30:59.530Z,18.20
2023-05-12T16:33:02.665Z,18.20
2023-05-12T16:35:10.918Z,18.30
2023-05-12T16:37:16.422Z,18.30
2023-05-12T16:39:20.742Z,18.30
2023-05-12T16:41:26.126Z,18.30
2023-05-12T16:43:30.922Z,18.30
2023-05-12T16:45:37.050Z,18.30
2023-05-12T16:47:40.018Z,18.30
2023-05-12T16:49:46.899Z,18.30
2023-05-12T16:51:50.131Z,18.30
2023-05-12T16:53:52.973Z,18.30
2023-05-12T16:55:56.029Z,18.30
2023-05-12T16:58:02.664Z,18.30
2023-05-12T17:00:06.799Z,18.20
2023-05-12T17:02:11.012Z,18.20
2023-05-12T17:04:16.508Z,18.20
2023-05-12T17:06:19.380Z,18.20
2023-05-12T17:08:22.949Z,18.20
2023-05-12T17:10:26.184Z,18.20
2023-05-12T17:12:29.443Z,18.10
2023-05-12T17:14:38.921Z,18.10
2023-05-12T17:16:41.889Z,18.10
2023-05-12T17:20:50.671Z,18.10
2023-05-12T17:22:56.589Z,18.10
2023-05-12T17:24:59.491Z,18.10
2023-05-12T17:27:02.523Z,18.00
2023-05-12T17:29:08.095Z,18.00
2023-05-12T17:31:12.455Z,18.00
2023-05-12T17:33:15.856Z,18.00
2023-05-12T17:35:22.379Z,18.00
2023-05-12T17:37:25.639Z,18.00
2023-05-12T17:39:28.611Z,18.00
2023-05-12T17:41:31.540Z,18.00
2023-05-12T17:43:34.494Z,18.10
2023-05-12T17:45:42.493Z,18.00
2023-05-12T17:47:47.774Z,18.10
2023-05-12T17:49:53.998Z,18.10
2023-05-12T17:51:59.310Z,18.10
2023-05-12T17:54:03.766Z,18.10
2023-05-12T17:56:07.171Z,18.10
2023-05-12T17:58:11.905Z,18.10
2023-05-12T18:00:17.771Z,18.10
2023-05-12T18:02:21.026Z,18.10
2023-05-12T18:04:26.880Z,18.10
2023-05-12T18:06:32.525Z,18.10
2023-05-12T18:08:35.511Z,18.00
2023-05-12T18:10:41.331Z,18.00
2023-05-12T18:12:46.160Z,18.00
2023-05-12T18:14:49.388Z,18.00
2023-05-12T18:16:52.542Z,18.00
2023-05-12T18:18:58.365Z,18.00
2023-05-12T18:21:06.777Z,17.90
2023-05-12T18:23:09.699Z,17.90
2023-05-12T18:25:13.988Z,17.90
2023-05-12T18:27:17.386Z,17.80
2023-05-12T18:29:20.216Z,17.80
2023-05-12T18:31:23.252Z,17.70
2023-05-12T18:33:29.943Z,17.70
2023-05-12T18:35:32.943Z,17.70
2023-05-12T18:37:39.660Z,17.60
2023-05-12T18:39:43.215Z,17.60
2023-05-12T18:41:46.269Z,17.60
2023-05-12T18:43:50.181Z,17.60
2023-05-12T18:45:54.062Z,17.50
2023-05-12T18:48:01.395Z,17.50
2023-05-12T18:50:05.336Z,17.50
2023-05-12T18:52:10.380Z,17.40
2023-05-12T18:54:14.681Z,17.40
2023-05-12T18:56:19.956Z,17.40
2023-05-12T18:58:23.004Z,17.40
2023-05-12T19:00:31.993Z,17.40
2023-05-12T19:02:35.567Z,17.40
2023-05-12T19:04:39.632Z,17.30
2023-05-12T19:06:46.527Z,17.30
2023-05-12T19:08:49.459Z,17.20
2023-05-12T19:10:53.818Z,17.20
2023-05-12T19:12:59.965Z,17.20
2023-05-12T19:15:02.870Z,17.20
2023-05-12T19:17:07.186Z,17.20
2023-05-12T19:19:10.305Z,17.10
2023-05-12T19:21:13.757Z,17.10
2023-05-12T19:23:17.117Z,17.10
2023-05-12T19:25:20.774Z,17.10
2023-05-12T19:27:30.510Z,17.10
2023-05-12T19:29:33.765Z,17.10
2023-05-12T19:31:36.822Z,17.10
2023-05-12T19:33:39.742Z,17.10
2023-05-12T19:35:42.988Z,17.10
2023-05-12T19:37:46.988Z,17.10
2023-05-12T19:39:53.101Z,17.10
2023-05-12T19:41:56.040Z,17.10
2023-05-12T19:44:02.685Z,17.10
2023-05-12T19:46:06.615Z,17.10
2023-05-12T19:48:10.208Z,17.00
2023-05-12T19:50:14.607Z,17.00
2023-05-12T19:52:17.515Z,17.00
2023-05-12T19:54:20.802Z,16.90
2023-05-12T19:56:24.185Z,16.90
2023-05-12T19:58:27.706Z,16.90
2023-05-12T20:00:32.052Z,16.80
2023-05-12T20:02:35.063Z,16.80
2023-05-12T20:04:37.976Z,16.80
2023-05-12T20:06:42.200Z,16.80
2023-05-12T20:08:45.585Z,16.80
2023-05-12T20:10:48.456Z,16.70
2023-05-12T20:12:51.612Z,16.70
2023-05-12T20:14:57.305Z,16.70
2023-05-12T20:17:05.404Z,16.60
2023-05-12T20:19:08.459Z,16.70
2023-05-12T20:21:11.403Z,16.60
2023-05-12T20:23:14.616Z,16.60
2023-05-12T20:25:20.917Z,16.50
2023-05-12T20:27:24.457Z,16.50
2023-05-12T20:29:30.079Z,16.50
2023-05-12T20:31:34.411Z,16.40
2023-05-12T20:33:38.732Z,16.40
2023-05-12T20:35:41.599Z,16.40
2023-05-12T20:37:44.764Z,16.30
2023-05-12T20:39:47.591Z,16.30
2023-05-12T20:41:50.559Z,16.20
2023-05-12T20:43:53.621Z,16.20
2023-05-12T20:45:56.805Z,16.20
2023-05-12T20:47:59.741Z,16.10
2023-05-12T20:50:05.540Z,16.10
2023-05-12T20:52:08.790Z,16.10
2023-05-12T20:54:11.627Z,16.00
2023-05-12T20:56:16.811Z,15.80
2023-05-12T20:58:19.805Z,16.00
2023-05-12T21:00:22.746Z,15.90
2023-05-12T21:02:26.885Z,15.90
2023-05-12T21:04:29.901Z,15.90
2023-05-12T21:06:36.953Z,15.90
2023-05-12T21:08:42.075Z,15.90
2023-05-12T21:10:45.352Z,15.80
2023-05-12T21:12:48.295Z,15.80
2023-05-12T21:14:51.168Z,15.80
2023-05-12T21:16:54.131Z,15.80
2023-05-12T21:18:57.136Z,15.70
2023-05-12T21:21:01.967Z,15.70
2023-05-12T21:23:09.251Z,15.70
2023-05-12T21:25:12.196Z,15.70
2023-05-12T21:27:18.142Z,15.60
2023-05-12T21:29:21.544Z,15.60
2023-05-12T21:31:24.769Z,15.60
2023-05-12T21:33:28.705Z,15.60
2023-05-12T21:35:31.816Z,15.60
2023-05-12T21:37:34.737Z,15.50
2023-05-12T21:39:38.967Z,15.50
2023-05-12T21:41:42.106Z,15.50
2023-05-12T21:43:45.603Z,15.50
2023-05-12T21:45:48.681Z,15.50
2023-05-12T21:47:51.715Z,15.50
2023-05-12T21:49:56.866Z,15.50
2023-05-12T21:52:01.251Z,15.50
2023-05-12T21:54:13.392Z,15.50
2023-05-12T21:56:19.719Z,15.50
2023-05-12T21:58:23.779Z,15.50
2023-05-12T22:00:26.942Z,15.50
2023-05-12T22:02:34.600Z,15.50
2023-05-12T22:04:37.729Z,15.50
2023-05-12T22:06:40.651Z,15.40
2023-05-12T22:08:45.506Z,15.40
2023-05-12T22:10:48.555Z,15.40
2023-05-12T22:12:54.075Z,15.40
2023-05-12T22:14:56.958Z,15.40
2023-05-12T22:17:03.080Z,15.40
2023-05-12T22:19:14.104Z,15.40
2023-05-12T22:21:18.356Z,15.40
2023-05-12T22:23:23.595Z,15.30
2023-05-12T22:25:26.763Z,15.30
2023-05-12T22:27:29.588Z,15.30
2023-05-12T22:29:36.058Z,15.30
2023-05-12T22:31:39.205Z,15.20
2023-05-12T22:33:42.779Z,15.30
2023-05-12T22:35:47.387Z,15.30
2023-05-12T22:37:51.040Z,15.30
2023-05-12T22:39:54.917Z,15.30
2023-05-12T22:41:57.830Z,15.20
2023-05-12T22:44:00.961Z,15.20
2023-05-12T22:46:09.423Z,15.20
2023-05-12T22:48:12.632Z,15.20
2023-05-12T22:50:16.172Z,15.20
2023-05-12T22:52:20.733Z,15.20
2023-05-12T22:54:23.697Z,15.20
2023-05-12T22:56:26.812Z,15.20
2023-05-12T22:58:29.979Z,15.20
2023-05-12T23:00:35.497Z,15.20
2023-05-12T23:02:38.576Z,15.10
2023-05-12T23:04:41.744Z,15.20
2023-05-12T23:06:44.788Z,15.10
2023-05-12T23:08:49.285Z,15.20
2023-05-12T23:10:52.331Z,15.10
2023-05-12T23:12:55.580Z,15.10
2023-05-12T23:14:58.568Z,15.10
2023-05-12T23:17:02.137Z,15.10
2023-05-12T23:19:05.459Z,15.10
2023-05-12T23:21:14.149Z,15.10
2023-05-12T23:23:17.151Z,15.10
2023-05-12T23:25:22.015Z,15.10
2023-05-12T23:27:25.397Z,15.10
2023-05-12T23:29:28.664Z,15.10
2023-05-12T23:31:31.627Z,15.10
2023-05-12T23:33:34.751Z,15.10
2023-05-12T23:35:37.982Z,15.10
2023-05-12T23:37:40.921Z,15.10
2023-05-12T23:39:43.815Z,15.10
2023-05-12T23:41:49.420Z,15.10
2023-05-12T23:43:52.513Z,15.10
2023-05-12T23:45:55.977Z,15.00
2023-05-12T23:48:00.415Z,15.10
2023-05-12T23:50:03.725Z,15.00
2023-05-12T23:52:07.628Z,15.00
2023-05-12T23:54:10.774Z,15.00
2023-05-12T23:56:13.957Z,15.00
2023-05-12T23:58:18.339Z,15.00
